sensor_id;sensor_type;location;lat;lon;timestamp;temperature;humidity
40516;DHT22;26216;53.724;9.898;2023-02-13T00:01:50;9.40;99.90
40516;DHT22;26216;53.724;9.898;2023-02-13T00:04:16;9.40;99.90
40516;DHT22;26216;53.724;9.898;2023-02-13T00:06:42;9.40;99.90
40516;DHT22;26216;53.724;9.898;2023-02-13T00:09:09;9.40;99.90
40516;DHT22;26216;53.724;9.898;2023-02-13T00:11:36;9.40;99.90
40516;DHT22;26216;53.724;9.898;2023-02-13T00:14:02;9.40;99.90
40516;DHT22;26216;53.724;9.898;2023-02-13T00:16:27;9.40;99.90
40516;DHT22;26216;53.724;9.898;2023-02-13T00:18:53;9.40;99.90
40516;DHT22;26216;53.724;9.898;2023-02-13T00:21:19;9.30;99.90
40516;DHT22;26216;53.724;9.898;2023-02-13T00:23:45;9.40;99.90
40516;DHT22;26216;53.724;9.898;2023-02-13T00:26:13;9.40;99.90
40516;DHT22;26216;53.724;9.898;2023-02-13T00:28:39;9.30;99.90
40516;DHT22;26216;53.724;9.898;2023-02-13T00:31:10;9.40;99.90
40516;DHT22;26216;53.724;9.898;2023-02-13T00:33:37;9.30;99.90
40516;DHT22;26216;53.724;9.898;2023-02-13T00:36:12;9.30;99.90
40516;DHT22;26216;53.724;9.898;2023-02-13T00:38:39;9.30;99.90
40516;DHT22;26216;53.724;9.898;2023-02-13T00:41:05;9.30;99.90
40516;DHT22;26216;53.724;9.898;2023-02-13T00:43:32;9.30;99.90
40516;DHT22;26216;53.724;9.898;2023-02-13T00:45:58;9.30;99.90
40516;DHT22;26216;53.724;9.898;2023-02-13T00:48:25;9.30;99.90
40516;DHT22;26216;53.724;9.898;2023-02-13T00:50:51;9.30;99.90
40516;DHT22;26216;53.724;9.898;2023-02-13T00:53:21;9.30;99.90
40516;DHT22;26216;53.724;9.898;2023-02-13T00:55:48;9.30;99.90
40516;DHT22;26216;53.724;9.898;2023-02-13T00:58:15;9.30;99.90
40516;DHT22;26216;53.724;9.898;2023-02-13T01:00:41;9.30;99.90
40516;DHT22;26216;53.724;9.898;2023-02-13T01:03:07;9.30;99.90
40516;DHT22;26216;53.724;9.898;2023-02-13T01:05:33;9.30;99.90
40516;DHT22;26216;53.724;9.898;2023-02-13T01:07:59;9.30;99.90
40516;DHT22;26216;53.724;9.898;2023-02-13T01:10:25;9.30;99.90
40516;DHT22;26216;53.724;9.898;2023-02-13T01:12:52;9.30;99.90
40516;DHT22;26216;53.724;9.898;2023-02-13T01:15:19;9.30;99.90
40516;DHT22;26216;53.724;9.898;2023-02-13T01:17:45;9.30;99.90
40516;DHT22;26216;53.724;9.898;2023-02-13T01:20:12;9.30;99.90
40516;DHT22;26216;53.724;9.898;2023-02-13T01:22:38;9.30;99.90
40516;DHT22;26216;53.724;9.898;2023-02-13T01:25:05;9.30;99.90
40516;DHT22;26216;53.724;9.898;2023-02-13T01:27:31;9.30;99.90
40516;DHT22;26216;53.724;9.898;2023-02-13T01:29:58;9.30;99.90
40516;DHT22;26216;53.724;9.898;2023-02-13T01:32:24;9.30;99.90
40516;DHT22;26216;53.724;9.898;2023-02-13T01:34:51;9.30;99.90
40516;DHT22;26216;53.724;9.898;2023-02-13T01:37:16;9.30;99.90
40516;DHT22;26216;53.724;9.898;2023-02-13T01:39:42;9.30;99.90
40516;DHT22;26216;53.724;9.898;2023-02-13T01:42:23;9.30;99.90
40516;DHT22;26216;53.724;9.898;2023-02-13T01:44:53;9.30;99.90
40516;DHT22;26216;53.724;9.898;2023-02-13T01:50:24;9.30;99.90
40516;DHT22;26216;53.724;9.898;2023-02-13T01:53:09;9.30;99.90
40516;DHT22;26216;53.724;9.898;2023-02-13T01:55:42;9.30;99.90
40516;DHT22;26216;53.724;9.898;2023-02-13T01:58:11;9.20;99.90
40516;DHT22;26216;53.724;9.898;2023-02-13T02:00:38;9.20;99.90
40516;DHT22;26216;53.724;9.898;2023-02-13T02:03:13;9.20;99.90
40516;DHT22;26216;53.724;9.898;2023-02-13T02:05:41;9.20;99.90
40516;DHT22;26216;53.724;9.898;2023-02-13T02:08:09;9.20;99.90
40516;DHT22;26216;53.724;9.898;2023-02-13T02:10:37;9.20;99.90
40516;DHT22;26216;53.724;9.898;2023-02-13T02:13:07;9.20;99.90
40516;DHT22;26216;53.724;9.898;2023-02-13T02:15:34;9.20;99.90
40516;DHT22;26216;53.724;9.898;2023-02-13T02:18:00;9.20;99.90
40516;DHT22;26216;53.724;9.898;2023-02-13T02:21:04;9.20;99.90
40516;DHT22;26216;53.724;9.898;2023-02-13T02:40:25;9.10;99.90
40516;DHT22;26216;53.724;9.898;2023-02-13T02:46:10;9.10;99.90
40516;DHT22;26216;53.724;9.898;2023-02-13T02:49:04;9.10;99.90
40516;DHT22;26216;53.724;9.898;2023-02-13T02:52:01;9.10;99.90
40516;DHT22;26216;53.724;9.898;2023-02-13T02:54:49;9.10;99.90
40516;DHT22;26216;53.724;9.898;2023-02-13T02:57:33;9.10;99.90
40516;DHT22;26216;53.724;9.898;2023-02-13T03:00:21;9.00;99.90
40516;DHT22;26216;53.724;9.898;2023-02-13T03:03:20;9.00;99.90
40516;DHT22;26216;53.724;9.898;2023-02-13T03:06:24;9.00;99.90
40516;DHT22;26216;53.724;9.898;2023-02-13T03:08:57;9.00;99.90
40516;DHT22;26216;53.724;9.898;2023-02-13T03:11:46;9.00;99.90
40516;DHT22;26216;53.724;9.898;2023-02-13T03:14:32;9.00;99.90
40516;DHT22;26216;53.724;9.898;2023-02-13T03:16:58;9.00;99.90
40516;DHT22;26216;53.724;9.898;2023-02-13T03:22:49;9.00;99.90
40516;DHT22;26216;53.724;9.898;2023-02-13T03:25:29;8.90;99.90
40516;DHT22;26216;53.724;9.898;2023-02-13T03:36:36;8.80;99.90
40516;DHT22;26216;53.724;9.898;2023-02-13T03:39:33;8.80;99.90
40516;DHT22;26216;53.724;9.898;2023-02-13T03:42:04;8.80;99.90
40516;DHT22;26216;53.724;9.898;2023-02-13T03:44:54;8.80;99.90
40516;DHT22;26216;53.724;9.898;2023-02-13T03:47:40;8.70;99.90
40516;DHT22;26216;53.724;9.898;2023-02-13T03:50:08;8.70;99.90
40516;DHT22;26216;53.724;9.898;2023-02-13T03:55:10;8.70;99.90
40516;DHT22;26216;53.724;9.898;2023-02-13T03:57:58;8.70;99.90
40516;DHT22;26216;53.724;9.898;2023-02-13T04:01:08;8.70;99.90
40516;DHT22;26216;53.724;9.898;2023-02-13T04:07:27;8.70;99.90
40516;DHT22;26216;53.724;9.898;2023-02-13T04:16:08;8.70;99.90
40516;DHT22;26216;53.724;9.898;2023-02-13T04:18:55;8.60;99.90
40516;DHT22;26216;53.724;9.898;2023-02-13T04:21:40;8.70;99.90
40516;DHT22;26216;53.724;9.898;2023-02-13T04:24:25;8.70;99.90
40516;DHT22;26216;53.724;9.898;2023-02-13T04:27:13;8.60;99.90
40516;DHT22;26216;53.724;9.898;2023-02-13T04:29:58;8.60;99.90
40516;DHT22;26216;53.724;9.898;2023-02-13T04:32:42;8.70;99.90
40516;DHT22;26216;53.724;9.898;2023-02-13T04:35:27;8.70;99.90
40516;DHT22;26216;53.724;9.898;2023-02-13T04:38:11;8.70;99.90
40516;DHT22;26216;53.724;9.898;2023-02-13T04:40:56;8.70;99.90
40516;DHT22;26216;53.724;9.898;2023-02-13T04:43:40;8.70;99.90
40516;DHT22;26216;53.724;9.898;2023-02-13T04:46:25;8.70;99.90
40516;DHT22;26216;53.724;9.898;2023-02-13T04:49:10;8.70;99.90
40516;DHT22;26216;53.724;9.898;2023-02-13T04:51:55;8.70;99.90
40516;DHT22;26216;53.724;9.898;2023-02-13T04:54:39;8.70;99.90
40516;DHT22;26216;53.724;9.898;2023-02-13T04:57:24;8.70;99.90
40516;DHT22;26216;53.724;9.898;2023-02-13T05:00:10;8.70;99.90
40516;DHT22;26216;53.724;9.898;2023-02-13T05:03:03;8.70;99.90
40516;DHT22;26216;53.724;9.898;2023-02-13T05:05:53;8.70;99.90
40516;DHT22;26216;53.724;9.898;2023-02-13T05:08:38;8.70;99.90
40516;DHT22;26216;53.724;9.898;2023-02-13T05:11:22;8.70;99.90
40516;DHT22;26216;53.724;9.898;2023-02-13T05:14:09;8.70;99.90
40516;DHT22;26216;53.724;9.898;2023-02-13T05:16:53;8.70;99.90
40516;DHT22;26216;53.724;9.898;2023-02-13T05:19:19;8.70;99.90
40516;DHT22;26216;53.724;9.898;2023-02-13T05:21:45;8.70;99.90
40516;DHT22;26216;53.724;9.898;2023-02-13T05:24:30;8.70;99.90
40516;DHT22;26216;53.724;9.898;2023-02-13T05:26:55;8.70;99.90
40516;DHT22;26216;53.724;9.898;2023-02-13T05:29:21;8.60;99.90
40516;DHT22;26216;53.724;9.898;2023-02-13T05:31:52;8.70;99.90
40516;DHT22;26216;53.724;9.898;2023-02-13T05:34:20;8.60;99.90
40516;DHT22;26216;53.724;9.898;2023-02-13T05:36:46;8.60;99.90
40516;DHT22;26216;53.724;9.898;2023-02-13T05:39:12;8.70;99.90
40516;DHT22;26216;53.724;9.898;2023-02-13T05:41:38;8.70;99.90
40516;DHT22;26216;53.724;9.898;2023-02-13T05:44:04;8.70;99.90
40516;DHT22;26216;53.724;9.898;2023-02-13T05:46:30;8.60;99.90
40516;DHT22;26216;53.724;9.898;2023-02-13T05:48:55;8.60;99.90
40516;DHT22;26216;53.724;9.898;2023-02-13T05:51:21;8.60;99.90
40516;DHT22;26216;53.724;9.898;2023-02-13T05:53:47;8.60;99.90
40516;DHT22;26216;53.724;9.898;2023-02-13T05:56:13;8.60;99.90
40516;DHT22;26216;53.724;9.898;2023-02-13T05:58:39;8.60;99.90
40516;DHT22;26216;53.724;9.898;2023-02-13T06:01:04;8.60;99.90
40516;DHT22;26216;53.724;9.898;2023-02-13T06:03:31;8.70;99.90
40516;DHT22;26216;53.724;9.898;2023-02-13T06:05:58;8.60;99.90
40516;DHT22;26216;53.724;9.898;2023-02-13T06:08:24;8.60;99.90
40516;DHT22;26216;53.724;9.898;2023-02-13T06:10:50;8.60;99.90
40516;DHT22;26216;53.724;9.898;2023-02-13T06:13:17;8.60;99.90
40516;DHT22;26216;53.724;9.898;2023-02-13T06:15:43;8.60;99.90
40516;DHT22;26216;53.724;9.898;2023-02-13T06:18:09;8.60;99.90
40516;DHT22;26216;53.724;9.898;2023-02-13T06:20:36;8.60;99.90
40516;DHT22;26216;53.724;9.898;2023-02-13T06:23:02;8.70;99.90
40516;DHT22;26216;53.724;9.898;2023-02-13T06:25:28;8.60;99.90
40516;DHT22;26216;53.724;9.898;2023-02-13T06:27:55;8.60;99.90
40516;DHT22;26216;53.724;9.898;2023-02-13T06:30:21;8.60;99.90
40516;DHT22;26216;53.724;9.898;2023-02-13T06:32:47;8.60;99.90
40516;DHT22;26216;53.724;9.898;2023-02-13T06:35:14;8.60;99.90
40516;DHT22;26216;53.724;9.898;2023-02-13T06:37:44;8.60;99.90
40516;DHT22;26216;53.724;9.898;2023-02-13T06:40:11;8.60;99.90
40516;DHT22;26216;53.724;9.898;2023-02-13T06:42:38;8.60;99.90
40516;DHT22;26216;53.724;9.898;2023-02-13T06:45:04;8.60;99.90
40516;DHT22;26216;53.724;9.898;2023-02-13T06:47:30;8.60;99.90
40516;DHT22;26216;53.724;9.898;2023-02-13T06:49:56;8.60;99.90
40516;DHT22;26216;53.724;9.898;2023-02-13T06:52:26;8.60;99.90
40516;DHT22;26216;53.724;9.898;2023-02-13T06:54:51;8.60;99.90
40516;DHT22;26216;53.724;9.898;2023-02-13T06:57:18;8.60;99.90
40516;DHT22;26216;53.724;9.898;2023-02-13T06:59:43;8.60;99.90
40516;DHT22;26216;53.724;9.898;2023-02-13T07:02:10;8.60;99.90
40516;DHT22;26216;53.724;9.898;2023-02-13T07:04:37;8.60;99.90
40516;DHT22;26216;53.724;9.898;2023-02-13T07:07:04;8.60;99.90
40516;DHT22;26216;53.724;9.898;2023-02-13T07:09:30;8.60;99.90
40516;DHT22;26216;53.724;9.898;2023-02-13T07:11:57;8.60;99.90
40516;DHT22;26216;53.724;9.898;2023-02-13T07:14:23;8.60;99.90
40516;DHT22;26216;53.724;9.898;2023-02-13T07:16:49;8.60;99.90
40516;DHT22;26216;53.724;9.898;2023-02-13T07:19:15;8.60;99.90
40516;DHT22;26216;53.724;9.898;2023-02-13T07:21:41;8.60;99.90
40516;DHT22;26216;53.724;9.898;2023-02-13T07:24:07;8.60;99.90
40516;DHT22;26216;53.724;9.898;2023-02-13T07:26:33;8.60;99.90
40516;DHT22;26216;53.724;9.898;2023-02-13T07:28:59;8.60;99.90
40516;DHT22;26216;53.724;9.898;2023-02-13T07:31:32;8.60;99.90
40516;DHT22;26216;53.724;9.898;2023-02-13T07:33:59;8.60;99.90
40516;DHT22;26216;53.724;9.898;2023-02-13T07:36:25;8.60;99.90
40516;DHT22;26216;53.724;9.898;2023-02-13T07:38:51;8.60;99.90
40516;DHT22;26216;53.724;9.898;2023-02-13T07:41:17;8.70;99.90
40516;DHT22;26216;53.724;9.898;2023-02-13T07:43:43;8.70;99.90
40516;DHT22;26216;53.724;9.898;2023-02-13T07:46:09;8.70;99.90
40516;DHT22;26216;53.724;9.898;2023-02-13T07:48:35;8.60;99.90
40516;DHT22;26216;53.724;9.898;2023-02-13T07:51:03;8.60;99.90
40516;DHT22;26216;53.724;9.898;2023-02-13T07:53:30;8.70;99.90
40516;DHT22;26216;53.724;9.898;2023-02-13T07:55:56;8.70;99.90
40516;DHT22;26216;53.724;9.898;2023-02-13T07:58:22;8.70;99.90
40516;DHT22;26216;53.724;9.898;2023-02-13T08:00:48;8.70;99.90
40516;DHT22;26216;53.724;9.898;2023-02-13T08:03:14;8.70;99.90
40516;DHT22;26216;53.724;9.898;2023-02-13T08:05:39;8.70;99.90
40516;DHT22;26216;53.724;9.898;2023-02-13T08:08:06;8.80;99.90
40516;DHT22;26216;53.724;9.898;2023-02-13T08:10:32;8.80;99.90
40516;DHT22;26216;53.724;9.898;2023-02-13T08:13:16;8.70;99.90
40516;DHT22;26216;53.724;9.898;2023-02-13T08:15:42;8.80;99.90
40516;DHT22;26216;53.724;9.898;2023-02-13T08:18:09;8.80;99.90
40516;DHT22;26216;53.724;9.898;2023-02-13T08:20:35;8.80;99.90
40516;DHT22;26216;53.724;9.898;2023-02-13T08:23:06;8.80;99.90
40516;DHT22;26216;53.724;9.898;2023-02-13T08:25:33;8.80;99.90
40516;DHT22;26216;53.724;9.898;2023-02-13T08:27:59;8.80;99.90
40516;DHT22;26216;53.724;9.898;2023-02-13T08:30:26;8.90;99.90
40516;DHT22;26216;53.724;9.898;2023-02-13T08:32:53;8.90;99.90
40516;DHT22;26216;53.724;9.898;2023-02-13T08:35:20;8.90;99.90
40516;DHT22;26216;53.724;9.898;2023-02-13T08:37:46;8.90;99.90
40516;DHT22;26216;53.724;9.898;2023-02-13T08:40:12;8.90;99.90
40516;DHT22;26216;53.724;9.898;2023-02-13T08:42:38;9.00;99.90
40516;DHT22;26216;53.724;9.898;2023-02-13T08:45:04;9.00;99.90
40516;DHT22;26216;53.724;9.898;2023-02-13T08:47:30;9.00;99.90
40516;DHT22;26216;53.724;9.898;2023-02-13T08:49:56;9.00;99.90
40516;DHT22;26216;53.724;9.898;2023-02-13T08:52:22;9.00;99.90
40516;DHT22;26216;53.724;9.898;2023-02-13T08:54:49;9.10;99.90
40516;DHT22;26216;53.724;9.898;2023-02-13T08:57:15;9.10;99.90
40516;DHT22;26216;53.724;9.898;2023-02-13T08:59:40;9.10;99.90
40516;DHT22;26216;53.724;9.898;2023-02-13T09:02:09;9.20;99.90
40516;DHT22;26216;53.724;9.898;2023-02-13T09:04:35;9.20;99.90
40516;DHT22;26216;53.724;9.898;2023-02-13T09:07:01;9.20;99.90
40516;DHT22;26216;53.724;9.898;2023-02-13T09:09:27;9.20;99.90
40516;DHT22;26216;53.724;9.898;2023-02-13T09:11:53;9.30;99.90
40516;DHT22;26216;53.724;9.898;2023-02-13T09:14:23;9.30;99.90
40516;DHT22;26216;53.724;9.898;2023-02-13T09:16:49;9.30;99.90
40516;DHT22;26216;53.724;9.898;2023-02-13T09:19:15;9.30;99.90
40516;DHT22;26216;53.724;9.898;2023-02-13T09:21:41;9.40;99.90
40516;DHT22;26216;53.724;9.898;2023-02-13T09:24:10;9.40;99.90
40516;DHT22;26216;53.724;9.898;2023-02-13T09:26:36;9.40;99.90
40516;DHT22;26216;53.724;9.898;2023-02-13T09:29:02;9.40;99.90
40516;DHT22;26216;53.724;9.898;2023-02-13T09:31:28;9.50;99.90
40516;DHT22;26216;53.724;9.898;2023-02-13T09:33:54;9.50;99.90
40516;DHT22;26216;53.724;9.898;2023-02-13T09:36:22;9.50;99.90
40516;DHT22;26216;53.724;9.898;2023-02-13T09:38:54;9.50;99.90
40516;DHT22;26216;53.724;9.898;2023-02-13T09:41:23;9.60;99.90
40516;DHT22;26216;53.724;9.898;2023-02-13T09:44:18;9.60;99.90
40516;DHT22;26216;53.724;9.898;2023-02-13T09:49:41;9.60;99.90
40516;DHT22;26216;53.724;9.898;2023-02-13T09:52:08;9.70;99.90
40516;DHT22;26216;53.724;9.898;2023-02-13T09:54:34;9.70;99.90
40516;DHT22;26216;53.724;9.898;2023-02-13T10:05:50;9.80;99.90
40516;DHT22;26216;53.724;9.898;2023-02-13T10:08:49;9.80;99.90
40516;DHT22;26216;53.724;9.898;2023-02-13T10:11:23;9.80;99.90
40516;DHT22;26216;53.724;9.898;2023-02-13T10:16:35;9.80;99.90
40516;DHT22;26216;53.724;9.898;2023-02-13T10:19:35;9.80;99.90
40516;DHT22;26216;53.724;9.898;2023-02-13T10:22:28;9.90;99.90
40516;DHT22;26216;53.724;9.898;2023-02-13T10:25:07;9.90;99.90
40516;DHT22;26216;53.724;9.898;2023-02-13T10:27:42;10.00;99.90
40516;DHT22;26216;53.724;9.898;2023-02-13T10:38:22;10.00;99.90
40516;DHT22;26216;53.724;9.898;2023-02-13T10:41:22;10.10;99.90
40516;DHT22;26216;53.724;9.898;2023-02-13T10:44:14;10.10;99.90
40516;DHT22;26216;53.724;9.898;2023-02-13T10:50:21;10.20;99.90
40516;DHT22;26216;53.724;9.898;2023-02-13T10:52:45;10.20;99.90
40516;DHT22;26216;53.724;9.898;2023-02-13T10:55:48;10.20;99.90
40516;DHT22;26216;53.724;9.898;2023-02-13T11:01:06;10.20;99.90
40516;DHT22;26216;53.724;9.898;2023-02-13T11:03:34;10.30;99.90
40516;DHT22;26216;53.724;9.898;2023-02-13T11:06:07;10.30;99.90
40516;DHT22;26216;53.724;9.898;2023-02-13T11:08:43;10.30;99.90
40516;DHT22;26216;53.724;9.898;2023-02-13T11:14:24;10.40;99.90
40516;DHT22;26216;53.724;9.898;2023-02-13T11:19:28;10.40;99.90
40516;DHT22;26216;53.724;9.898;2023-02-13T11:22:10;10.40;99.90
40516;DHT22;26216;53.724;9.898;2023-02-13T11:24:40;10.40;99.90
40516;DHT22;26216;53.724;9.898;2023-02-13T11:27:09;10.50;99.90
40516;DHT22;26216;53.724;9.898;2023-02-13T11:29:55;10.40;99.90
40516;DHT22;26216;53.724;9.898;2023-02-13T11:32:30;10.50;99.90
40516;DHT22;26216;53.724;9.898;2023-02-13T11:34:56;10.50;99.90
40516;DHT22;26216;53.724;9.898;2023-02-13T11:37:28;10.50;99.90
40516;DHT22;26216;53.724;9.898;2023-02-13T11:39:57;10.50;99.90
40516;DHT22;26216;53.724;9.898;2023-02-13T11:42:35;10.50;99.90
40516;DHT22;26216;53.724;9.898;2023-02-13T11:45:14;10.50;99.90
40516;DHT22;26216;53.724;9.898;2023-02-13T11:47:44;10.50;99.90
40516;DHT22;26216;53.724;9.898;2023-02-13T11:50:31;10.50;99.90
40516;DHT22;26216;53.724;9.898;2023-02-13T11:53:16;10.60;99.90
40516;DHT22;26216;53.724;9.898;2023-02-13T11:55:45;10.60;99.90
40516;DHT22;26216;53.724;9.898;2023-02-13T11:58:27;10.60;99.90
40516;DHT22;26216;53.724;9.898;2023-02-13T12:03:40;10.60;99.90
40516;DHT22;26216;53.724;9.898;2023-02-13T12:06:14;10.70;99.90
40516;DHT22;26216;53.724;9.898;2023-02-13T12:08:44;10.70;99.90
40516;DHT22;26216;53.724;9.898;2023-02-13T12:14:18;10.70;99.90
40516;DHT22;26216;53.724;9.898;2023-02-13T12:16:58;10.70;99.90
40516;DHT22;26216;53.724;9.898;2023-02-13T12:19:30;10.70;99.90
40516;DHT22;26216;53.724;9.898;2023-02-13T12:22:13;10.80;99.90
40516;DHT22;26216;53.724;9.898;2023-02-13T12:25:18;10.80;99.90
40516;DHT22;26216;53.724;9.898;2023-02-13T12:28:11;10.80;99.90
40516;DHT22;26216;53.724;9.898;2023-02-13T12:39:34;10.70;99.90
40516;DHT22;26216;53.724;9.898;2023-02-13T12:45:14;10.60;99.90
40516;DHT22;26216;53.724;9.898;2023-02-13T12:50:21;10.50;99.90
40516;DHT22;26216;53.724;9.898;2023-02-13T12:53:43;10.50;99.90
40516;DHT22;26216;53.724;9.898;2023-02-13T13:07:22;10.40;99.90
40516;DHT22;26216;53.724;9.898;2023-02-13T13:12:42;10.30;99.90
40516;DHT22;26216;53.724;9.898;2023-02-13T13:15:25;10.30;99.90
40516;DHT22;26216;53.724;9.898;2023-02-13T13:23:22;10.20;99.90
40516;DHT22;26216;53.724;9.898;2023-02-13T13:28:21;10.20;99.90
40516;DHT22;26216;53.724;9.898;2023-02-13T13:30:48;10.10;99.90
40516;DHT22;26216;53.724;9.898;2023-02-13T13:33:16;10.10;99.90
40516;DHT22;26216;53.724;9.898;2023-02-13T13:49:57;10.10;99.90
40516;DHT22;26216;53.724;9.898;2023-02-13T13:52:27;10.10;99.90
40516;DHT22;26216;53.724;9.898;2023-02-13T13:54:55;10.10;99.90
40516;DHT22;26216;53.724;9.898;2023-02-13T13:57:23;10.00;99.90
40516;DHT22;26216;53.724;9.898;2023-02-13T13:59:58;10.00;99.90
40516;DHT22;26216;53.724;9.898;2023-02-13T14:03:11;10.00;99.90
40516;DHT22;26216;53.724;9.898;2023-02-13T14:05:20;10.00;99.90
40516;DHT22;26216;53.724;9.898;2023-02-13T14:07:53;10.00;99.90
40516;DHT22;26216;53.724;9.898;2023-02-13T14:12:50;10.00;99.90
40516;DHT22;26216;53.724;9.898;2023-02-13T14:20:50;9.80;98.60
40516;DHT22;26216;53.724;9.898;2023-02-13T14:23:44;9.70;99.10
40516;DHT22;26216;53.724;9.898;2023-02-13T14:31:37;9.60;98.90
40516;DHT22;26216;53.724;9.898;2023-02-13T14:37:04;9.60;99.40
40516;DHT22;26216;53.724;9.898;2023-02-13T14:39:34;9.50;98.90
40516;DHT22;26216;53.724;9.898;2023-02-13T14:42:24;9.40;99.30
40516;DHT22;26216;53.724;9.898;2023-02-13T14:44:55;9.40;99.20
40516;DHT22;26216;53.724;9.898;2023-02-13T14:47:32;9.40;99.00
40516;DHT22;26216;53.724;9.898;2023-02-13T14:50:03;9.40;99.60
40516;DHT22;26216;53.724;9.898;2023-02-13T14:52:37;9.40;99.40
40516;DHT22;26216;53.724;9.898;2023-02-13T14:55:13;9.40;99.20
40516;DHT22;26216;53.724;9.898;2023-02-13T14:57:44;9.40;99.50
40516;DHT22;26216;53.724;9.898;2023-02-13T15:00:43;9.40;99.30
40516;DHT22;26216;53.724;9.898;2023-02-13T15:03:40;9.40;99.30
40516;DHT22;26216;53.724;9.898;2023-02-13T15:06:23;9.40;99.50
40516;DHT22;26216;53.724;9.898;2023-02-13T15:08:51;9.30;99.30
40516;DHT22;26216;53.724;9.898;2023-02-13T15:11:39;9.30;99.00
40516;DHT22;26216;53.724;9.898;2023-02-13T15:17:06;9.30;98.90
40516;DHT22;26216;53.724;9.898;2023-02-13T15:19:36;9.20;99.00
40516;DHT22;26216;53.724;9.898;2023-02-13T15:22:04;9.20;99.00
40516;DHT22;26216;53.724;9.898;2023-02-13T15:24:51;9.20;99.00
40516;DHT22;26216;53.724;9.898;2023-02-13T15:27:26;9.20;99.00
40516;DHT22;26216;53.724;9.898;2023-02-13T15:29:59;9.20;99.10
40516;DHT22;26216;53.724;9.898;2023-02-13T15:32:31;9.20;99.10
40516;DHT22;26216;53.724;9.898;2023-02-13T15:34:59;9.10;98.70
40516;DHT22;26216;53.724;9.898;2023-02-13T15:37:29;9.20;98.80
40516;DHT22;26216;53.724;9.898;2023-02-13T15:40:22;9.10;98.60
40516;DHT22;26216;53.724;9.898;2023-02-13T15:42:50;9.10;98.20
40516;DHT22;26216;53.724;9.898;2023-02-13T15:45:18;9.10;98.90
40516;DHT22;26216;53.724;9.898;2023-02-13T15:47:46;9.10;99.30
40516;DHT22;26216;53.724;9.898;2023-02-13T15:50:35;9.10;99.30
40516;DHT22;26216;53.724;9.898;2023-02-13T15:53:04;9.10;99.60
40516;DHT22;26216;53.724;9.898;2023-02-13T15:55:34;9.10;99.80
40516;DHT22;26216;53.724;9.898;2023-02-13T15:58:02;9.10;99.50
40516;DHT22;26216;53.724;9.898;2023-02-13T16:00:34;9.10;99.60
40516;DHT22;26216;53.724;9.898;2023-02-13T16:03:03;9.10;98.90
40516;DHT22;26216;53.724;9.898;2023-02-13T16:05:37;9.10;98.90
40516;DHT22;26216;53.724;9.898;2023-02-13T16:08:29;9.10;99.50
40516;DHT22;26216;53.724;9.898;2023-02-13T16:14:00;9.00;99.50
40516;DHT22;26216;53.724;9.898;2023-02-13T16:16:35;9.10;99.30
40516;DHT22;26216;53.724;9.898;2023-02-13T16:19:24;9.10;99.60
40516;DHT22;26216;53.724;9.898;2023-02-13T16:21:51;9.00;99.50
40516;DHT22;26216;53.724;9.898;2023-02-13T16:24:20;9.00;99.30
40516;DHT22;26216;53.724;9.898;2023-02-13T16:26:47;9.00;99.20
40516;DHT22;26216;53.724;9.898;2023-02-13T16:29:20;9.00;99.30
40516;DHT22;26216;53.724;9.898;2023-02-13T16:31:49;9.00;99.50
40516;DHT22;26216;53.724;9.898;2023-02-13T16:34:28;9.00;99.60
40516;DHT22;26216;53.724;9.898;2023-02-13T16:36:57;8.90;99.50
40516;DHT22;26216;53.724;9.898;2023-02-13T16:39:26;9.00;99.50
40516;DHT22;26216;53.724;9.898;2023-02-13T16:41:55;8.90;99.70
40516;DHT22;26216;53.724;9.898;2023-02-13T16:47:03;9.00;99.90
40516;DHT22;26216;53.724;9.898;2023-02-13T16:49:33;8.90;99.90
40516;DHT22;26216;53.724;9.898;2023-02-13T16:54:36;8.90;99.90
40516;DHT22;26216;53.724;9.898;2023-02-13T16:59:55;8.90;99.90
40516;DHT22;26216;53.724;9.898;2023-02-13T17:02:26;8.90;99.90
40516;DHT22;26216;53.724;9.898;2023-02-13T17:07:29;8.90;99.90
40516;DHT22;26216;53.724;9.898;2023-02-13T17:10:01;8.90;99.90
40516;DHT22;26216;53.724;9.898;2023-02-13T17:12:30;8.90;99.90
40516;DHT22;26216;53.724;9.898;2023-02-13T17:15:01;8.90;99.90
40516;DHT22;26216;53.724;9.898;2023-02-13T17:17:29;8.90;99.90
40516;DHT22;26216;53.724;9.898;2023-02-13T17:19:59;8.90;99.80
40516;DHT22;26216;53.724;9.898;2023-02-13T17:24:52;8.90;99.90
40516;DHT22;26216;53.724;9.898;2023-02-13T17:27:18;8.90;99.90
40516;DHT22;26216;53.724;9.898;2023-02-13T17:29:44;8.90;99.90
40516;DHT22;26216;53.724;9.898;2023-02-13T17:32:17;8.90;99.90
40516;DHT22;26216;53.724;9.898;2023-02-13T17:34:43;8.90;99.90
40516;DHT22;26216;53.724;9.898;2023-02-13T17:37:16;8.90;99.90
40516;DHT22;26216;53.724;9.898;2023-02-13T17:39:43;8.90;99.90
40516;DHT22;26216;53.724;9.898;2023-02-13T17:42:27;8.90;99.90
40516;DHT22;26216;53.724;9.898;2023-02-13T17:44:55;8.80;99.90
40516;DHT22;26216;53.724;9.898;2023-02-13T17:47:23;8.80;99.90
40516;DHT22;26216;53.724;9.898;2023-02-13T17:49:49;8.80;99.90
40516;DHT22;26216;53.724;9.898;2023-02-13T17:52:24;8.80;99.90
40516;DHT22;26216;53.724;9.898;2023-02-13T17:54:51;8.80;99.90
40516;DHT22;26216;53.724;9.898;2023-02-13T17:57:17;8.80;99.90
40516;DHT22;26216;53.724;9.898;2023-02-13T17:59:44;8.80;99.90
40516;DHT22;26216;53.724;9.898;2023-02-13T18:02:16;8.80;99.90
40516;DHT22;26216;53.724;9.898;2023-02-13T18:04:42;8.80;99.90
40516;DHT22;26216;53.724;9.898;2023-02-13T18:07:10;8.80;99.90
40516;DHT22;26216;53.724;9.898;2023-02-13T18:09:36;8.80;99.90
40516;DHT22;26216;53.724;9.898;2023-02-13T18:12:03;8.80;99.90
40516;DHT22;26216;53.724;9.898;2023-02-13T18:14:30;8.80;99.90
40516;DHT22;26216;53.724;9.898;2023-02-13T18:16:56;8.80;99.90
40516;DHT22;26216;53.724;9.898;2023-02-13T18:19:22;8.80;99.90
40516;DHT22;26216;53.724;9.898;2023-02-13T18:21:48;8.80;99.90
40516;DHT22;26216;53.724;9.898;2023-02-13T18:24:14;8.80;99.90
40516;DHT22;26216;53.724;9.898;2023-02-13T18:26:40;8.80;99.90
40516;DHT22;26216;53.724;9.898;2023-02-13T18:29:06;8.80;99.90
40516;DHT22;26216;53.724;9.898;2023-02-13T18:31:32;8.80;99.90
40516;DHT22;26216;53.724;9.898;2023-02-13T18:33:59;8.70;99.90
40516;DHT22;26216;53.724;9.898;2023-02-13T18:36:25;8.70;99.90
40516;DHT22;26216;53.724;9.898;2023-02-13T18:38:51;8.70;99.90
40516;DHT22;26216;53.724;9.898;2023-02-13T18:41:18;8.70;99.90
40516;DHT22;26216;53.724;9.898;2023-02-13T18:43:44;8.70;99.90
40516;DHT22;26216;53.724;9.898;2023-02-13T18:46:10;8.70;99.90
40516;DHT22;26216;53.724;9.898;2023-02-13T18:48:36;8.70;99.90
40516;DHT22;26216;53.724;9.898;2023-02-13T18:51:02;8.60;99.90
40516;DHT22;26216;53.724;9.898;2023-02-13T18:53:29;8.60;99.90
40516;DHT22;26216;53.724;9.898;2023-02-13T18:56:03;8.60;99.90
40516;DHT22;26216;53.724;9.898;2023-02-13T18:58:29;8.60;99.90
40516;DHT22;26216;53.724;9.898;2023-02-13T19:00:56;8.60;99.90
40516;DHT22;26216;53.724;9.898;2023-02-13T19:03:22;8.60;99.90
40516;DHT22;26216;53.724;9.898;2023-02-13T19:05:48;8.60;99.90
40516;DHT22;26216;53.724;9.898;2023-02-13T19:08:14;8.60;99.90
40516;DHT22;26216;53.724;9.898;2023-02-13T19:10:41;8.60;99.90